createdAt,value
2016-11-13T00:00:17.697Z,24.58
2016-11-13T00:01:17.704Z,24.57
2016-11-13T00:02:17.761Z,24.55
2016-11-13T00:03:18.037Z,24.5
2016-11-13T00:04:17.412Z,24.53
2016-11-13T00:05:17.811Z,24.57
2016-11-13T00:06:17.422Z,24.64
2016-11-13T00:07:17.744Z,24.62
2016-11-13T00:08:18.548Z,24.55
2016-11-13T00:09:18.119Z,24.55
2016-11-13T00:10:17.760Z,24.58
2016-11-13T00:11:18.129Z,24.61
2016-11-13T00:12:17.824Z,24.62
2016-11-13T00:13:18.095Z,24.58
2016-11-13T00:14:32.768Z,24.53
2016-11-13T00:15:17.794Z,24.53
2016-11-13T00:16:17.799Z,24.53
2016-11-13T00:17:19.088Z,24.6
2016-11-13T00:18:17.861Z,24.62
2016-11-13T00:19:18.823Z,24.55
2016-11-13T00:20:17.512Z,24.55
2016-11-13T00:21:17.569Z,24.58
2016-11-13T00:22:17.838Z,24.55
2016-11-13T00:23:18.206Z,24.62
2016-11-13T00:24:17.899Z,24.65
2016-11-13T00:25:17.545Z,24.57
2016-11-13T00:26:17.869Z,24.53
2016-11-13T00:27:17.919Z,24.6
2016-11-13T00:28:17.924Z,24.53
2016-11-13T00:29:18.198Z,24.61
2016-11-13T00:30:18.899Z,24.65
2016-11-13T00:31:18.207Z,24.58
2016-11-13T00:32:17.904Z,24.67
2016-11-13T00:33:17.907Z,24.69
2016-11-13T00:34:18.412Z,24.64
2016-11-13T00:35:17.967Z,24.62
2016-11-13T00:36:17.929Z,24.69
2016-11-13T00:37:17.932Z,24.53
2016-11-13T00:38:18.250Z,24.6
2016-11-13T00:39:19.331Z,24.53
2016-11-13T00:40:18.322Z,24.58
2016-11-13T00:41:19.310Z,24.52
2016-11-13T00:42:17.962Z,24.57
2016-11-13T00:43:18.281Z,24.53
2016-11-13T00:44:18.287Z,24.53
2016-11-13T00:45:17.984Z,24.53
2016-11-13T00:46:17.678Z,24.58
2016-11-13T00:47:18.117Z,24.53
2016-11-13T00:48:18.366Z,24.55
2016-11-13T00:49:18.008Z,24.5
2016-11-13T00:50:18.358Z,24.57
2016-11-13T00:51:18.072Z,24.52
2016-11-13T00:52:19.805Z,24.55
2016-11-13T00:53:18.185Z,24.55
2016-11-13T00:54:18.037Z,24.55
2016-11-13T00:55:17.783Z,24.5
2016-11-13T00:56:18.048Z,24.57
2016-11-13T00:57:18.056Z,24.52
2016-11-13T00:58:18.119Z,24.57
2016-11-13T00:59:18.433Z,24.49
2016-11-13T01:00:18.130Z,24.57
2016-11-13T01:01:18.233Z,24.57
2016-11-13T01:02:18.401Z,24.57
2016-11-13T01:03:20.175Z,24.53
2016-11-13T01:04:18.416Z,24.57
2016-11-13T01:05:17.793Z,24.55
2016-11-13T01:06:17.902Z,24.61
2016-11-13T01:07:17.804Z,24.58
2016-11-13T01:08:18.440Z,24.5
2016-11-13T01:09:18.448Z,24.55
2016-11-13T01:10:18.144Z,24.53
2016-11-13T01:11:18.199Z,24.49
2016-11-13T01:12:18.652Z,24.5
2016-11-13T01:13:18.213Z,24.52
2016-11-13T01:14:18.221Z,24.52
2016-11-13T01:15:17.909Z,24.47
2016-11-13T01:16:18.573Z,24.6
2016-11-13T01:17:18.186Z,24.55
2016-11-13T01:18:18.190Z,24.47
2016-11-13T01:19:17.981Z,24.53
2016-11-13T01:20:18.204Z,24.49
2016-11-13T01:21:18.577Z,24.42
2016-11-13T01:22:18.269Z,24.46
2016-11-13T01:23:18.587Z,24.47
2016-11-13T01:24:18.310Z,24.47
2016-11-13T01:25:18.389Z,24.46
2016-11-13T01:26:18.556Z,24.47
2016-11-13T01:27:18.664Z,24.55
2016-11-13T01:28:18.260Z,24.46
2016-11-13T01:29:18.572Z,24.46
2016-11-13T01:30:18.054Z,24.46
2016-11-13T01:31:18.275Z,24.4
2016-11-13T01:32:18.282Z,24.46
2016-11-13T01:33:18.604Z,24.53
2016-11-13T01:34:19.460Z,24.46
2016-11-13T01:35:18.660Z,24.57
2016-11-13T01:36:18.105Z,24.5
2016-11-13T01:37:18.677Z,24.5
2016-11-13T01:38:18.417Z,24.47
2016-11-13T01:39:18.324Z,24.43
2016-11-13T01:40:18.377Z,24.55
2016-11-13T01:41:18.699Z,24.45
2016-11-13T01:42:18.344Z,24.52
2016-11-13T01:43:18.350Z,24.49
2016-11-13T01:44:32.971Z,24.53
2016-11-13T01:45:19.363Z,24.42
2016-11-13T01:46:18.366Z,24.49
2016-11-13T01:47:18.738Z,24.52
2016-11-13T01:48:18.382Z,24.52
2016-11-13T01:49:18.390Z,24.47
2016-11-13T01:50:18.129Z,24.49
2016-11-13T01:51:18.397Z,24.45
2016-11-13T01:52:18.723Z,24.42
2016-11-13T01:53:18.513Z,24.45
2016-11-13T01:54:19.087Z,24.53
2016-11-13T01:55:18.473Z,24.53
2016-11-13T01:56:19.081Z,24.5
2016-11-13T01:57:18.752Z,24.5
2016-11-13T01:58:18.182Z,24.52
2016-11-13T01:59:18.498Z,24.47
2016-11-13T02:00:18.455Z,24.47
2016-11-13T02:01:18.512Z,24.55
2016-11-13T02:02:18.207Z,24.52
2016-11-13T02:03:18.790Z,24.52
2016-11-13T02:04:18.479Z,24.55
2016-11-13T02:05:18.590Z,24.52
2016-11-13T02:06:18.492Z,24.53
2016-11-13T02:07:19.213Z,24.49
2016-11-13T02:08:18.506Z,24.52
2016-11-13T02:09:18.514Z,24.5
2016-11-13T02:10:18.570Z,24.57
2016-11-13T02:11:18.576Z,24.53
2016-11-13T02:12:18.582Z,24.6
2016-11-13T02:13:18.539Z,24.57
2016-11-13T02:14:18.543Z,24.57
2016-11-13T02:15:18.554Z,24.57
2016-11-13T02:16:18.917Z,24.55
2016-11-13T02:17:18.564Z,24.58
2016-11-13T02:18:19.368Z,24.57
2016-11-13T02:19:18.627Z,24.53
2016-11-13T02:20:18.270Z,24.6
2016-11-13T02:21:18.321Z,24.57
2016-11-13T02:22:18.283Z,24.52
2016-11-13T02:23:18.337Z,24.55
2016-11-13T02:24:18.605Z,24.47
2016-11-13T02:25:18.612Z,24.43
2016-11-13T02:26:18.308Z,24.5
2016-11-13T02:27:18.991Z,24.52
2016-11-13T02:28:18.679Z,24.49
2016-11-13T02:29:19.591Z,24.47
2016-11-13T02:30:18.694Z,24.49
2016-11-13T02:31:19.715Z,24.35
2016-11-13T02:32:18.392Z,24.4
2016-11-13T02:33:18.668Z,24.5
2016-11-13T02:34:18.411Z,24.47
2016-11-13T02:35:18.727Z,24.43
2016-11-13T02:36:18.998Z,24.46
2016-11-13T02:37:19.079Z,24.37
2016-11-13T02:38:18.698Z,24.35
2016-11-13T02:39:19.030Z,24.49
2016-11-13T02:40:18.446Z,24.37
2016-11-13T02:41:18.714Z,24.43
2016-11-13T02:42:20.084Z,24.52
2016-11-13T02:43:19.036Z,24.47
2016-11-13T02:44:18.738Z,24.46
2016-11-13T02:45:18.769Z,24.46
2016-11-13T02:46:18.433Z,24.46
2016-11-13T02:47:18.750Z,24.49
2016-11-13T02:48:18.495Z,24.47
2016-11-13T02:49:18.485Z,24.43
2016-11-13T02:50:19.136Z,24.39
2016-11-13T02:51:18.463Z,24.47
2016-11-13T02:52:19.099Z,24.45
2016-11-13T02:53:20.104Z,24.39
2016-11-13T02:54:19.113Z,24.43
2016-11-13T02:55:18.905Z,24.37
2016-11-13T02:56:18.500Z,24.46
2016-11-13T02:57:19.132Z,24.43
2016-11-13T02:58:19.138Z,24.3
2016-11-13T02:59:18.882Z,24.42
2016-11-13T03:00:18.837Z,24.31
2016-11-13T03:01:19.157Z,24.35
2016-11-13T03:02:19.163Z,24.37
2016-11-13T03:03:18.593Z,24.37
2016-11-13T03:04:19.667Z,24.4
2016-11-13T03:05:18.920Z,24.47
2016-11-13T03:06:18.928Z,24.32
2016-11-13T03:07:18.886Z,24.42
2016-11-13T03:08:18.943Z,24.35
2016-11-13T03:09:18.900Z,24.4
2016-11-13T03:10:18.952Z,24.39
2016-11-13T03:11:19.008Z,24.45
2016-11-13T03:12:18.911Z,24.46
2016-11-13T03:13:18.609Z,24.43
2016-11-13T03:14:18.714Z,24.39
2016-11-13T03:15:19.847Z,24.37
2016-11-13T03:16:19.302Z,24.35
2016-11-13T03:17:19.258Z,24.34
2016-11-13T03:18:19.005Z,24.45
2016-11-13T03:19:19.273Z,24.43
2016-11-13T03:20:19.276Z,24.34
2016-11-13T03:21:18.971Z,24.37
2016-11-13T03:22:18.770Z,24.39
2016-11-13T03:23:19.299Z,24.39
2016-11-13T03:24:19.308Z,24.34
2016-11-13T03:25:18.999Z,24.34
2016-11-13T03:26:20.466Z,24.35
2016-11-13T03:27:18.699Z,24.31
2016-11-13T03:28:19.069Z,24.32
2016-11-13T03:29:19.026Z,24.42
2016-11-13T03:30:18.768Z,24.43
2016-11-13T03:31:19.072Z,24.42
2016-11-13T03:32:19.091Z,24.37
2016-11-13T03:33:19.361Z,24.31
2016-11-13T03:34:19.108Z,24.4
2016-11-13T03:35:19.065Z,24.53
2016-11-13T03:36:19.431Z,24.46
2016-11-13T03:37:20.388Z,24.47
2016-11-13T03:38:19.444Z,24.5
2016-11-13T03:39:19.087Z,24.55
2016-11-13T03:40:19.460Z,24.47
2016-11-13T03:41:18.789Z,24.52
2016-11-13T03:42:19.423Z,24.46
2016-11-13T03:43:18.854Z,24.52
2016-11-13T03:44:19.122Z,24.5
2016-11-13T03:45:18.813Z,24.53
2016-11-13T03:46:19.122Z,24.58
2016-11-13T03:47:19.195Z,24.57
2016-11-13T03:48:19.199Z,24.57
2016-11-13T03:49:18.847Z,24.6
2016-11-13T03:50:18.899Z,24.58
2016-11-13T03:51:19.170Z,24.57
2016-11-13T03:52:19.271Z,24.53
2016-11-13T03:53:19.543Z,24.5
2016-11-13T03:54:19.233Z,24.5
2016-11-13T03:55:19.555Z,24.52
2016-11-13T03:56:19.507Z,24.52
2016-11-13T03:57:19.715Z,24.53
2016-11-13T03:58:19.203Z,24.57
2016-11-13T03:59:19.577Z,24.5
2016-11-13T04:00:19.532Z,24.49
2016-11-13T04:01:18.950Z,24.49
2016-11-13T04:02:18.924Z,24.52
2016-11-13T04:03:18.928Z,24.5
2016-11-13T04:04:18.934Z,24.4
2016-11-13T04:05:19.568Z,24.47
2016-11-13T04:06:18.947Z,24.47
2016-11-13T04:07:19.367Z,24.46
2016-11-13T04:08:19.861Z,24.46
2016-11-13T04:09:19.279Z,24.42
2016-11-13T04:10:19.468Z,24.53
2016-11-13T04:11:19.654Z,24.46
2016-11-13T04:12:19.348Z,24.49
2016-11-13T04:13:19.335Z,24.43
2016-11-13T04:14:19.623Z,24.47
2016-11-13T04:15:19.316Z,24.37
2016-11-13T04:16:19.692Z,24.47
2016-11-13T04:17:19.691Z,24.42
2016-11-13T04:18:19.027Z,24.46
2016-11-13T04:19:20.258Z,24.45
2016-11-13T04:20:19.348Z,24.32
2016-11-13T04:21:19.455Z,24.46
2016-11-13T04:22:19.669Z,24.45
2016-11-13T04:23:19.370Z,24.47
2016-11-13T04:24:19.685Z,24.47
2016-11-13T04:25:19.689Z,24.39
2016-11-13T04:26:19.387Z,24.45
2016-11-13T04:27:19.180Z,24.42
2016-11-13T04:28:19.085Z,24.45
2016-11-13T04:29:19.403Z,24.47
2016-11-13T04:30:20.204Z,24.43
2016-11-13T04:31:19.782Z,24.4
2016-11-13T04:32:19.823Z,24.46
2016-11-13T04:33:19.430Z,24.39
2016-11-13T04:34:19.749Z,24.5
2016-11-13T04:35:19.144Z,24.35
2016-11-13T04:36:19.452Z,24.39
2016-11-13T04:37:20.069Z,24.35
2016-11-13T04:38:19.148Z,24.42
2016-11-13T04:39:19.831Z,24.35
2016-11-13T04:40:19.786Z,24.5
2016-11-13T04:41:20.945Z,24.43
2016-11-13T04:42:19.279Z,24.39
2016-11-13T04:43:20.207Z,24.27
2016-11-13T04:44:19.863Z,24.37
2016-11-13T04:45:19.508Z,24.35
2016-11-13T04:46:19.512Z,24.34
2016-11-13T04:47:19.522Z,24.34
2016-11-13T04:48:19.525Z,24.43
2016-11-13T04:49:19.585Z,24.46
2016-11-13T04:50:19.591Z,24.35
2016-11-13T04:51:19.856Z,24.42
2016-11-13T04:52:20.968Z,24.4
2016-11-13T04:53:19.872Z,24.42
2016-11-13T04:54:20.356Z,24.37
2016-11-13T04:55:19.572Z,24.37
2016-11-13T04:56:19.625Z,24.37
2016-11-13T04:57:19.901Z,24.32
2016-11-13T04:58:19.644Z,24.39
2016-11-13T04:59:19.945Z,24.34
2016-11-13T05:00:19.970Z,24.39
2016-11-13T05:01:19.660Z,24.42
2016-11-13T05:02:19.615Z,24.35
2016-11-13T05:03:21.066Z,24.34
2016-11-13T05:04:19.319Z,24.43
2016-11-13T05:05:20.584Z,24.4
2016-11-13T05:06:19.957Z,24.47
2016-11-13T05:07:19.700Z,24.45
2016-11-13T05:08:19.970Z,24.35
2016-11-13T05:09:19.667Z,24.46
2016-11-13T05:10:19.669Z,24.55
2016-11-13T05:11:19.725Z,24.45
2016-11-13T05:12:19.999Z,24.53
2016-11-13T05:13:19.424Z,24.43
2016-11-13T05:14:19.698Z,24.52
2016-11-13T05:15:19.438Z,24.46
2016-11-13T05:16:20.800Z,24.43
2016-11-13T05:17:19.399Z,24.46
2016-11-13T05:18:19.772Z,24.47
2016-11-13T05:19:20.035Z,24.43
2016-11-13T05:20:19.418Z,24.52
2016-11-13T05:21:20.049Z,24.42
2016-11-13T05:22:19.480Z,24.45
2016-11-13T05:23:19.803Z,24.42
2016-11-13T05:24:19.765Z,24.43
2016-11-13T05:25:19.550Z,24.5
2016-11-13T05:26:20.086Z,24.39
2016-11-13T05:27:21.380Z,24.35
2016-11-13T05:28:19.895Z,24.37
2016-11-13T05:29:19.790Z,24.3
2016-11-13T05:30:19.843Z,24.35
2016-11-13T05:31:19.803Z,24.43
2016-11-13T05:32:19.494Z,24.4
2016-11-13T05:33:20.127Z,24.35
2016-11-13T05:34:19.869Z,24.43
2016-11-13T05:35:19.828Z,24.31
2016-11-13T05:36:19.890Z,24.28
2016-11-13T05:37:19.837Z,24.3
2016-11-13T05:38:21.459Z,24.39
2016-11-13T05:39:19.615Z,24.43
2016-11-13T05:40:20.170Z,24.3
2016-11-13T05:41:19.863Z,24.42
2016-11-13T05:42:20.183Z,24.39
2016-11-13T05:43:19.884Z,24.39
2016-11-13T05:44:19.983Z,24.35
2016-11-13T05:45:19.939Z,24.32
2016-11-13T05:46:19.996Z,24.25
2016-11-13T05:47:20.213Z,24.27
2016-11-13T05:48:19.905Z,24.28
2016-11-13T05:49:19.615Z,24.3
2016-11-13T05:50:20.006Z,24.32
2016-11-13T05:51:19.716Z,24.25
2016-11-13T05:52:19.669Z,24.3
2016-11-13T05:53:19.937Z,24.32
2016-11-13T05:54:20.258Z,24.32
2016-11-13T05:55:19.950Z,24.4
2016-11-13T05:56:19.747Z,24.32
2016-11-13T05:57:19.963Z,24.31
2016-11-13T05:58:20.281Z,24.28
2016-11-13T05:59:19.672Z,24.31
2016-11-13T06:00:21.971Z,24.32
2016-11-13T06:01:20.040Z,24.28
2016-11-13T06:02:20.309Z,24.25
2016-11-13T06:03:20.355Z,24.35
2016-11-13T06:04:20.378Z,24.28
2016-11-13T06:05:19.755Z,24.28
2016-11-13T06:06:20.387Z,24.31
2016-11-13T06:07:19.769Z,24.34
2016-11-13T06:08:19.725Z,24.25
2016-11-13T06:09:20.443Z,24.34
2016-11-13T06:10:20.411Z,24.31
2016-11-13T06:11:22.333Z,24.25
2016-11-13T06:12:19.851Z,24.28
2016-11-13T06:13:20.119Z,24.27
2016-11-13T06:14:20.436Z,24.25
2016-11-13T06:15:20.134Z,24.25
2016-11-13T06:16:20.086Z,24.24
2016-11-13T06:17:20.154Z,24.28
2016-11-13T06:18:20.563Z,24.32
2016-11-13T06:19:20.105Z,24.24
2016-11-13T06:20:20.478Z,24.28
2016-11-13T06:21:20.483Z,24.24
2016-11-13T06:22:20.156Z,24.25
2016-11-13T06:23:19.869Z,24.3
2016-11-13T06:24:20.483Z,24.3
2016-11-13T06:25:20.244Z,24.22
2016-11-13T06:26:19.853Z,24.22
2016-11-13T06:27:20.241Z,24.3
2016-11-13T06:28:20.265Z,24.22
2016-11-13T06:29:20.480Z,24.24
2016-11-13T06:30:20.489Z,24.31
2016-11-13T06:31:20.896Z,24.27
2016-11-13T06:32:20.504Z,24.28
2016-11-13T06:33:20.204Z,24.3
2016-11-13T06:34:19.891Z,24.3
2016-11-13T06:35:20.524Z,24.34
2016-11-13T06:36:20.221Z,24.28
2016-11-13T06:37:20.222Z,24.34
2016-11-13T06:38:20.228Z,24.35
2016-11-13T06:39:19.971Z,24.35
2016-11-13T06:40:20.242Z,24.3
2016-11-13T06:41:20.245Z,24.34
2016-11-13T06:42:21.122Z,24.31
2016-11-13T06:43:20.577Z,24.32
2016-11-13T06:44:50.909Z,24.31
2016-11-13T06:45:20.285Z,24.3
2016-11-13T06:46:20.280Z,24.32
2016-11-13T06:47:19.975Z,24.42
2016-11-13T06:48:20.291Z,24.34
2016-11-13T06:49:20.613Z,24.3
2016-11-13T06:50:20.672Z,24.34
2016-11-13T06:51:20.625Z,24.25
2016-11-13T06:52:20.868Z,24.28
2016-11-13T06:53:21.392Z,24.39
2016-11-13T06:54:20.333Z,24.31
2016-11-13T06:55:20.685Z,24.2
2016-11-13T06:56:20.084Z,24.27
2016-11-13T06:57:20.399Z,24.3
2016-11-13T06:58:20.669Z,24.25
2016-11-13T06:59:20.465Z,24.3
2016-11-13T07:00:20.370Z,24.27
2016-11-13T07:01:20.379Z,24.28
2016-11-13T07:02:20.741Z,24.22
2016-11-13T07:03:20.702Z,24.25
2016-11-13T07:04:21.697Z,24.3
2016-11-13T07:05:20.403Z,24.31
2016-11-13T07:06:20.961Z,24.27
2016-11-13T07:07:20.416Z,24.24
2016-11-13T07:08:20.731Z,24.3
2016-11-13T07:09:20.427Z,24.27
2016-11-13T07:10:20.218Z,24.34
2016-11-13T07:11:20.453Z,24.3
2016-11-13T07:12:20.839Z,24.27
2016-11-13T07:13:20.454Z,24.27
2016-11-13T07:14:20.510Z,24.27
2016-11-13T07:15:21.960Z,24.2
2016-11-13T07:16:20.470Z,24.28
2016-11-13T07:17:20.877Z,24.21
2016-11-13T07:18:20.536Z,24.3
2016-11-13T07:19:20.954Z,24.28
2016-11-13T07:20:20.861Z,24.24
2016-11-13T07:21:20.848Z,24.27
2016-11-13T07:22:20.512Z,24.22
2016-11-13T07:23:20.519Z,24.22
2016-11-13T07:24:20.832Z,24.3
2016-11-13T07:25:20.215Z,24.22
2016-11-13T07:26:22.130Z,24.22
2016-11-13T07:27:20.541Z,24.25
2016-11-13T07:28:20.999Z,24.27
2016-11-13T07:29:20.553Z,24.25
2016-11-13T07:30:20.350Z,24.22
2016-11-13T07:31:20.254Z,24.22
2016-11-13T07:32:20.938Z,24.21
2016-11-13T07:33:20.580Z,24.22
2016-11-13T07:34:20.953Z,24.27
2016-11-13T07:35:20.281Z,24.15
2016-11-13T07:36:20.291Z,24.21
2016-11-13T07:37:22.455Z,24.2
2016-11-13T07:38:20.975Z,24.24
2016-11-13T07:39:21.457Z,24.27
2016-11-13T07:40:21.037Z,24.22
2016-11-13T07:41:20.632Z,24.24
2016-11-13T07:42:20.856Z,24.22
2016-11-13T07:43:20.645Z,24.2
2016-11-13T07:44:20.965Z,24.22
2016-11-13T07:45:20.657Z,24.21
2016-11-13T07:46:20.719Z,24.22
2016-11-13T07:47:20.985Z,24.25
2016-11-13T07:48:20.730Z,24.13
2016-11-13T07:49:20.423Z,24.15
2016-11-13T07:50:22.104Z,24.2
2016-11-13T07:51:20.700Z,24.18
2016-11-13T07:52:20.756Z,24.22
2016-11-13T07:53:21.083Z,24.21
2016-11-13T07:54:21.081Z,24.22
2016-11-13T07:55:20.879Z,24.1
2016-11-13T07:56:21.042Z,24.15
2016-11-13T07:57:20.787Z,24.21
2016-11-13T07:58:20.791Z,24.06
2016-11-13T07:59:20.753Z,24.21
2016-11-13T08:00:20.816Z,24.16
2016-11-13T08:01:21.913Z,24.25
2016-11-13T08:02:21.084Z,24.21
2016-11-13T08:03:21.084Z,24.24
2016-11-13T08:04:21.146Z,24.15
2016-11-13T08:05:20.889Z,24.18
2016-11-13T08:06:21.162Z,24.18
2016-11-13T08:07:20.586Z,24.27
2016-11-13T08:08:21.558Z,24.25
2016-11-13T08:09:21.126Z,24.22
2016-11-13T08:10:20.957Z,24.21
2016-11-13T08:11:20.910Z,24.16
2016-11-13T08:12:20.782Z,24.2
2016-11-13T08:13:20.530Z,24.22
2016-11-13T08:14:20.948Z,24.2
2016-11-13T08:15:20.942Z,24.16
2016-11-13T08:16:21.222Z,24.21
2016-11-13T08:17:20.689Z,24.22
2016-11-13T08:18:21.185Z,24.24
2016-11-13T08:19:22.083Z,24.09
2016-11-13T08:20:21.200Z,24.27
2016-11-13T08:21:21.484Z,24.16
2016-11-13T08:22:20.948Z,24.13
2016-11-13T08:23:21.106Z,24.1
2016-11-13T08:24:20.962Z,24.12
2016-11-13T08:25:21.309Z,24.13
2016-11-13T08:26:20.953Z,24.12
2016-11-13T08:27:20.932Z,24.08
2016-11-13T08:28:20.673Z,24.13
2016-11-13T08:29:21.256Z,24.12
2016-11-13T08:30:21.974Z,24.09
2016-11-13T08:31:20.675Z,24.08
2016-11-13T08:32:22.188Z,24.13
2016-11-13T08:33:21.043Z,24.09
2016-11-13T08:34:21.225Z,24.06
2016-11-13T08:35:21.342Z,24.06
2016-11-13T08:36:20.987Z,24.05
2016-11-13T08:37:20.680Z,24.05
2016-11-13T08:38:21.313Z,23.95
2016-11-13T08:39:21.318Z,24.06
2016-11-13T08:40:21.012Z,24.05
2016-11-13T08:41:21.993Z,24.03
2016-11-13T08:42:21.346Z,24.03
2016-11-13T08:43:22.134Z,24.06
2016-11-13T08:44:20.727Z,24.03
2016-11-13T08:45:21.484Z,23.98
2016-11-13T08:46:21.053Z,24.05
2016-11-13T08:47:20.792Z,24
2016-11-13T08:48:20.802Z,24.02
2016-11-13T08:49:21.171Z,24.02
2016-11-13T08:50:21.117Z,24.06
2016-11-13T08:51:21.089Z,24.02
2016-11-13T08:52:20.879Z,24
2016-11-13T08:53:20.840Z,24.02
2016-11-13T08:54:22.421Z,24.02
2016-11-13T08:55:21.422Z,24.05
2016-11-13T08:56:21.782Z,23.97
2016-11-13T08:57:21.175Z,24.06
2016-11-13T08:58:20.866Z,24.02
2016-11-13T08:59:21.137Z,23.95
2016-11-13T09:00:21.453Z,23.93
2016-11-13T09:01:21.562Z,23.93
2016-11-13T09:02:21.521Z,23.97
2016-11-13T09:03:21.168Z,23.98
2016-11-13T09:04:21.590Z,24.09
2016-11-13T09:05:22.703Z,24.08
2016-11-13T09:06:21.184Z,24.02
2016-11-13T09:07:22.124Z,24
2016-11-13T09:08:21.246Z,23.98
2016-11-13T09:09:21.561Z,23.97
2016-11-13T09:10:21.255Z,24.06
2016-11-13T09:11:21.211Z,23.91
2016-11-13T09:12:21.220Z,24.06
2016-11-13T09:13:21.588Z,23.95
2016-11-13T09:14:21.333Z,24.02
2016-11-13T09:15:21.548Z,23.98
2016-11-13T09:16:21.658Z,24.03
2016-11-13T09:17:20.942Z,24.02
2016-11-13T09:18:20.947Z,23.95
2016-11-13T09:19:21.263Z,24
2016-11-13T09:20:21.428Z,23.98
2016-11-13T09:21:21.640Z,23.97
2016-11-13T09:22:21.334Z,23.91
2016-11-13T09:23:21.291Z,23.98
2016-11-13T09:24:21.330Z,23.93
2016-11-13T09:25:22.106Z,23.93
2016-11-13T09:26:21.727Z,23.95
2016-11-13T09:27:21.505Z,23.98
2016-11-13T09:28:21.322Z,24
2016-11-13T09:29:21.327Z,23.98
2016-11-13T09:30:21.338Z,23.95
2016-11-13T09:31:21.721Z,23.93
2016-11-13T09:32:21.400Z,23.95
2016-11-13T09:33:21.353Z,23.94
2016-11-13T09:34:21.921Z,23.93
2016-11-13T09:35:21.365Z,23.91
2016-11-13T09:36:22.072Z,23.76
2016-11-13T09:37:21.378Z,23.91
2016-11-13T09:38:21.894Z,23.9
2016-11-13T09:39:21.749Z,23.87
2016-11-13T09:40:21.717Z,24
2016-11-13T09:41:21.720Z,23.8
2016-11-13T09:42:21.408Z,23.94
2016-11-13T09:43:21.201Z,23.87
2016-11-13T09:44:21.113Z,23.87
2016-11-13T09:45:21.431Z,23.83
2016-11-13T09:46:21.431Z,23.91
2016-11-13T09:47:22.411Z,23.9
2016-11-13T09:48:21.495Z,23.84
2016-11-13T09:49:22.520Z,23.9
2016-11-13T09:50:21.509Z,23.85
2016-11-13T09:51:21.517Z,23.88
2016-11-13T09:52:21.524Z,23.85
2016-11-13T09:53:21.169Z,23.87
2016-11-13T09:54:21.485Z,23.8
2016-11-13T09:55:21.803Z,23.78
2016-11-13T09:56:21.551Z,23.78
2016-11-13T09:57:21.342Z,23.84
2016-11-13T09:58:21.831Z,23.73
2016-11-13T09:59:21.555Z,23.78
2016-11-13T10:00:22.878Z,23.76
2016-11-13T10:01:21.840Z,23.75
2016-11-13T10:02:21.532Z,23.78
2016-11-13T10:03:21.696Z,23.69
2016-11-13T10:04:21.251Z,23.73
2016-11-13T10:05:21.606Z,23.69
2016-11-13T10:06:21.560Z,23.69
2016-11-13T10:07:21.935Z,23.65
2016-11-13T10:08:21.610Z,23.76
2016-11-13T10:09:21.944Z,23.63
2016-11-13T10:10:21.903Z,23.6
2016-11-13T10:11:23.146Z,23.78
2016-11-13T10:12:21.910Z,23.76
2016-11-13T10:13:21.656Z,23.61
2016-11-13T10:14:21.764Z,23.7
2016-11-13T10:15:21.623Z,23.61
2016-11-13T10:16:21.625Z,23.69
2016-11-13T10:17:21.318Z,23.63
2016-11-13T10:18:21.325Z,23.69
2016-11-13T10:19:21.957Z,23.58
2016-11-13T10:20:21.683Z,23.61
2016-11-13T10:21:21.655Z,23.66
2016-11-13T10:22:23.530Z,23.65
2016-11-13T10:23:21.672Z,23.58
2016-11-13T10:24:21.679Z,23.66
2016-11-13T10:25:22.000Z,23.6
2016-11-13T10:26:22.106Z,23.57
2016-11-13T10:27:21.746Z,23.55
2016-11-13T10:28:22.002Z,23.63
2016-11-13T10:29:21.707Z,23.6
2016-11-13T10:30:21.764Z,23.55
2016-11-13T10:31:22.021Z,23.58
2016-11-13T10:32:21.869Z,23.58
2016-11-13T10:33:21.458Z,23.6
2016-11-13T10:34:22.109Z,23.55
2016-11-13T10:35:21.748Z,23.58
2016-11-13T10:36:21.752Z,23.58
2016-11-13T10:37:21.811Z,23.48
2016-11-13T10:38:21.878Z,23.48
2016-11-13T10:39:21.510Z,23.55
2016-11-13T10:40:21.519Z,23.58
2016-11-13T10:41:22.149Z,23.54
2016-11-13T10:42:22.801Z,23.51
2016-11-13T10:43:21.585Z,23.55
2016-11-13T10:44:21.860Z,23.48
2016-11-13T10:45:21.567Z,23.55
2016-11-13T10:46:21.871Z,23.54
2016-11-13T10:47:21.875Z,23.5
2016-11-13T10:48:21.832Z,23.48
2016-11-13T10:49:21.840Z,23.48
2016-11-13T10:50:21.946Z,23.58
2016-11-13T10:51:21.884Z,23.54
2016-11-13T10:52:21.906Z,23.53
2016-11-13T10:53:23.068Z,23.55
2016-11-13T10:54:22.240Z,23.48
2016-11-13T10:55:21.980Z,23.51
2016-11-13T10:56:21.886Z,23.5
2016-11-13T10:57:21.945Z,23.48
2016-11-13T10:58:21.947Z,23.46
2016-11-13T10:59:21.911Z,23.53
2016-11-13T11:00:21.959Z,23.53
2016-11-13T11:01:22.019Z,23.55
2016-11-13T11:02:22.336Z,23.54
2016-11-13T11:03:22.242Z,23.5
2016-11-13T11:04:23.440Z,23.43
2016-11-13T11:05:21.945Z,23.57
2016-11-13T11:06:22.748Z,23.48
2016-11-13T11:07:22.319Z,23.53
2016-11-13T11:08:21.970Z,23.48
2016-11-13T11:09:21.704Z,23.55
2016-11-13T11:10:21.669Z,23.48
2016-11-13T11:11:21.668Z,23.46
2016-11-13T11:12:22.299Z,23.47
2016-11-13T11:13:21.683Z,23.38
2016-11-13T11:14:22.003Z,23.46
2016-11-13T11:15:23.881Z,23.4
2016-11-13T11:16:21.702Z,23.39
2016-11-13T11:17:22.808Z,23.39
2016-11-13T11:18:22.073Z,23.48
2016-11-13T11:19:21.817Z,23.39
2016-11-13T11:20:22.038Z,23.36
2016-11-13T11:21:22.043Z,23.5
2016-11-13T11:22:22.050Z,23.39
2016-11-13T11:23:21.797Z,23.43
2016-11-13T11:24:22.063Z,23.54
2016-11-13T11:25:22.120Z,23.48
2016-11-13T11:26:22.388Z,23.65
2016-11-13T11:27:22.394Z,23.63
2016-11-13T11:28:23.389Z,23.66
2016-11-13T11:29:22.095Z,23.76
2016-11-13T11:30:22.099Z,23.76
2016-11-13T11:31:21.851Z,23.75
2016-11-13T11:32:22.160Z,23.72
2016-11-13T11:33:22.483Z,23.7
2016-11-13T11:34:22.440Z,23.6
2016-11-13T11:35:22.234Z,23.58
2016-11-13T11:36:22.137Z,23.55
2016-11-13T11:37:22.397Z,23.47
2016-11-13T11:38:22.252Z,23.4
2016-11-13T11:39:22.471Z,23.38
2016-11-13T11:40:22.267Z,23.35
2016-11-13T11:41:21.859Z,23.46
2016-11-13T11:42:22.494Z,23.39
2016-11-13T11:43:22.179Z,23.39
2016-11-13T11:44:22.549Z,23.32
2016-11-13T11:45:22.508Z,23.31
2016-11-13T11:46:22.566Z,23.33
2016-11-13T11:47:21.894Z,23.32
2016-11-13T11:48:22.500Z,23.32
2016-11-13T11:49:22.635Z,23.4
2016-11-13T11:50:22.279Z,23.46
2016-11-13T11:51:22.279Z,23.57
2016-11-13T11:52:22.291Z,23.6
2016-11-13T11:53:22.242Z,23.55
2016-11-13T11:54:21.984Z,23.54
2016-11-13T11:55:21.942Z,23.5
2016-11-13T11:56:22.315Z,23.43
2016-11-13T11:57:22.649Z,23.46
2016-11-13T11:58:22.008Z,23.4
2016-11-13T11:59:23.145Z,23.32
2016-11-13T12:00:22.288Z,23.35
2016-11-13T12:01:22.440Z,23.39
2016-11-13T12:02:22.037Z,23.42
2016-11-13T12:03:22.377Z,23.38
2016-11-13T12:04:22.673Z,23.31
2016-11-13T12:05:22.324Z,23.4
2016-11-13T12:06:22.736Z,23.38
2016-11-13T12:07:22.386Z,23.33
2016-11-13T12:08:22.388Z,23.32
2016-11-13T12:09:22.112Z,23.32
2016-11-13T12:10:23.156Z,23.27
2016-11-13T12:11:22.354Z,23.31
2016-11-13T12:12:23.061Z,23.27
2016-11-13T12:13:22.370Z,23.33
2016-11-13T12:14:22.685Z,23.33
2016-11-13T12:15:22.694Z,23.32
2016-11-13T12:16:22.438Z,23.35
2016-11-13T12:17:22.784Z,23.23
2016-11-13T12:18:22.397Z,23.22
2016-11-13T12:19:22.820Z,23.2
2016-11-13T12:20:22.460Z,23.25
2016-11-13T12:21:23.706Z,23.2
2016-11-13T12:22:22.431Z,23.17
2016-11-13T12:23:23.678Z,23.13
2016-11-13T12:24:22.436Z,23.17
2016-11-13T12:25:22.491Z,23.19
2016-11-13T12:26:22.496Z,23.16
2016-11-13T12:27:22.765Z,23.19
2016-11-13T12:28:22.459Z,23.15
2016-11-13T12:29:22.827Z,23.05
2016-11-13T12:30:22.474Z,23
2016-11-13T12:31:22.843Z,22.97
2016-11-13T12:32:22.797Z,22.91
2016-11-13T12:33:22.803Z,22.94
2016-11-13T12:34:24.221Z,23
2016-11-13T12:35:22.191Z,23
2016-11-13T12:36:22.560Z,23.04
2016-11-13T12:37:22.830Z,22.94
2016-11-13T12:38:22.571Z,23.07
2016-11-13T12:39:22.846Z,23.07
2016-11-13T12:40:22.544Z,23.19
2016-11-13T12:41:22.853Z,23.13
2016-11-13T12:42:22.594Z,23.15
2016-11-13T12:43:22.791Z,23.2
2016-11-13T12:44:22.559Z,23.15
2016-11-13T12:45:24.650Z,23
2016-11-13T12:46:22.937Z,23.04
2016-11-13T12:47:22.627Z,22.98
2016-11-13T12:48:22.896Z,23.01
2016-11-13T12:49:22.587Z,23.09
2016-11-13T12:50:22.958Z,22.94
2016-11-13T12:51:22.914Z,22.97
2016-11-13T12:52:22.970Z,22.98
2016-11-13T12:53:22.661Z,23.02
2016-11-13T12:54:23.214Z,23.02
2016-11-13T12:55:22.366Z,23.02
2016-11-13T12:56:22.314Z,23.07